Time;durP1;ratioP1;P1;durP2;ratioP2;P2;SDS_P1;SDS_P2;PMS_P1;PMS_P2;Temp;Humidity;BMP_temperature;BMP_pressure;BME280_temperature;BME280_humidity;BME280_pressure;Samples;Min_cycle;Max_cycle;Signal;HPM_P1;HPM_P2
2023/05/03 00:02:43;;;;;;;;;;;;;;;14.51;99.52;99530.04;135333;1281;22672;-71
2023/05/03 00:05:46;;;;;;;;;;;;;;;14.59;96.75;99530.62;131289;1281;5374660;-67
2023/05/03 00:08:48;;;;;;;;;;;;;;;14.54;98.38;99531.09;135388;1281;22510;-67
2023/05/03 00:11:52;;;;;;;;;;;;;;;14.52;97.79;99532.25;135390;1281;22523;-68
2023/05/03 00:14:55;;;;;;;;;;;;;;;14.54;97.42;99531.42;135369;1281;24260;-68
2023/05/03 00:18:01;;;;;;;;;;;;;;;14.53;97.81;99533.11;135395;1281;26506;-67
2023/05/03 00:21:05;;;;;;;;;;;;;;;14.51;97.16;99529.16;135354;1281;22932;-68
2023/05/03 00:24:08;;;;;;;;;;;;;;;14.56;96.96;99528.85;135382;1281;22555;-68
2023/05/03 00:27:14;;;;;;;;;;;;;;;14.56;95.90;99524.96;135381;1281;22521;-69
2023/05/03 00:30:26;;;;;;;;;;;;;;;14.57;97.74;99524.04;135328;1281;22540;-72
2023/05/03 00:33:28;;;;;;;;;;;;;;;14.51;98.20;99527.91;135372;1281;22513;-70
2023/05/03 00:36:31;;;;;;;;;;;;;;;14.50;97.97;99528.20;135377;1262;22516;-71
2023/05/03 00:39:35;;;;;;;;;;;;;;;14.50;99.61;99524.48;135369;1281;25364;-68
2023/05/03 00:42:38;;;;;;;;;;;;;;;14.54;99.00;99529.18;135345;1262;22523;-67
2023/05/03 00:45:40;;;;;;;;;;;;;;;14.59;97.29;99528.15;135338;1281;22518;-69
2023/05/03 00:48:43;;;;;;;;;;;;;;;14.53;97.75;99530.10;135386;1262;22521;-70
2023/05/03 00:51:50;;;;;;;;;;;;;;;14.51;99.01;99529.70;135382;1281;22499;-69
2023/05/03 00:54:57;;;;;;;;;;;;;;;14.68;96.61;99527.03;135377;1281;22504;-69
2023/05/03 00:58:00;;;;;;;;;;;;;;;14.87;94.87;99526.12;135401;1281;22514;-68
2023/05/03 01:01:03;;;;;;;;;;;;;;;14.55;98.22;99528.41;135419;1281;22517;-68
2023/05/03 01:04:07;;;;;;;;;;;;;;;14.49;98.71;99527.92;135364;1281;22500;-69
2023/05/03 01:07:11;;;;;;;;;;;;;;;14.44;99.26;99529.69;135380;1281;22674;-71
2023/05/03 01:10:16;;;;;;;;;;;;;;;14.45;99.78;99532.02;135387;1281;22499;-69
2023/05/03 01:13:20;;;;;;;;;;;;;;;14.68;97.75;99526.16;135346;1281;22500;-69
2023/05/03 01:16:23;;;;;;;;;;;;;;;14.80;97.28;99532.25;135378;1281;22531;-69
2023/05/03 01:19:26;;;;;;;;;;;;;;;14.84;96.55;99532.15;135382;1281;22508;-68
2023/05/03 01:22:34;;;;;;;;;;;;;;;14.75;97.07;99528.36;135417;1281;22519;-70
2023/05/03 01:25:37;;;;;;;;;;;;;;;14.79;96.43;99530.02;135374;1270;22511;-67
2023/05/03 01:28:40;;;;;;;;;;;;;;;14.65;97.10;99528.11;135329;1281;22551;-67
2023/05/03 01:31:51;;;;;;;;;;;;;;;14.62;97.05;99529.86;135300;1281;22609;-70
2023/05/03 01:34:55;;;;;;;;;;;;;;;14.60;97.11;99528.27;135358;1281;22514;-68
2023/05/03 01:37:59;;;;;;;;;;;;;;;14.59;97.05;99526.91;135324;1281;22519;-68
2023/05/03 01:41:02;;;;;;;;;;;;;;;14.57;96.76;99531.05;135325;1281;22502;-67
2023/05/03 01:44:06;;;;;;;;;;;;;;;14.64;96.15;99531.70;135350;1281;22532;-68
2023/05/03 01:47:10;;;;;;;;;;;;;;;14.61;95.89;99532.95;135315;1281;22527;-68
2023/05/03 01:50:14;;;;;;;;;;;;;;;14.44;96.35;99537.59;135342;1281;22529;-68
2023/05/03 01:53:17;;;;;;;;;;;;;;;14.41;95.81;99537.77;135370;1281;24250;-69
2023/05/03 01:56:21;;;;;;;;;;;;;;;14.31;96.56;99539.45;135403;1281;22516;-68
2023/05/03 01:59:25;;;;;;;;;;;;;;;14.21;97.41;99541.85;135405;1272;22526;-68
2023/05/03 02:02:29;;;;;;;;;;;;;;;14.25;97.02;99540.52;135341;1281;23769;-68
2023/05/03 02:05:33;;;;;;;;;;;;;;;14.15;98.03;99542.25;135357;1281;22518;-71
2023/05/03 02:08:37;;;;;;;;;;;;;;;14.36;96.06;99547.20;135346;1281;22511;-68
2023/05/03 02:11:41;;;;;;;;;;;;;;;14.30;96.34;99542.84;135359;1281;22510;-67
2023/05/03 02:14:45;;;;;;;;;;;;;;;14.51;95.46;99541.98;135401;1281;22511;-68
2023/05/03 02:17:48;;;;;;;;;;;;;;;14.59;95.09;99540.77;135339;1281;22531;-66
2023/05/03 02:20:51;;;;;;;;;;;;;;;14.78;93.77;99538.13;135396;1281;22531;-67
2023/05/03 02:23:53;;;;;;;;;;;;;;;14.91;92.76;99538.34;135396;1281;22508;-68
2023/05/03 02:27:03;;;;;;;;;;;;;;;14.95;92.31;99534.25;135426;1281;22520;-68
2023/05/03 02:30:06;;;;;;;;;;;;;;;14.91;92.26;99534.34;135402;1281;22517;-66
2023/05/03 02:33:09;;;;;;;;;;;;;;;14.86;92.79;99535.33;135413;1281;22536;-66
2023/05/03 02:36:13;;;;;;;;;;;;;;;14.88;92.66;99539.58;135385;1281;22512;-68
2023/05/03 02:39:16;;;;;;;;;;;;;;;14.93;92.27;99543.52;135393;1260;22527;-67
2023/05/03 02:42:20;;;;;;;;;;;;;;;14.86;92.33;99545.00;135399;1281;22507;-67
2023/05/03 02:45:24;;;;;;;;;;;;;;;14.74;92.99;99550.73;135383;1281;22535;-67
2023/05/03 02:48:27;;;;;;;;;;;;;;;14.69;93.17;99552.64;135378;1281;22513;-68
2023/05/03 02:51:31;;;;;;;;;;;;;;;14.54;93.29;99557.46;135378;1281;22534;-67
2023/05/03 02:54:35;;;;;;;;;;;;;;;14.51;92.54;99556.80;135436;1281;22501;-66
2023/05/03 02:57:39;;;;;;;;;;;;;;;14.34;93.53;99556.02;135413;1281;22626;-67
2023/05/03 03:00:43;;;;;;;;;;;;;;;14.23;94.34;99556.65;135412;1281;25435;-68
2023/05/03 03:03:46;;;;;;;;;;;;;;;14.16;94.78;99557.80;135421;1281;22666;-68
2023/05/03 03:06:52;;;;;;;;;;;;;;;14.14;94.72;99567.08;135384;1281;22536;-67
2023/05/03 03:09:59;;;;;;;;;;;;;;;14.08;95.56;99569.25;135406;1281;22514;-69
2023/05/03 03:13:01;;;;;;;;;;;;;;;14.13;95.22;99568.05;135375;1281;25319;-68
2023/05/03 03:16:04;;;;;;;;;;;;;;;14.09;95.86;99572.86;135361;1281;25696;-69
2023/05/03 03:19:07;;;;;;;;;;;;;;;14.16;96.15;99571.57;135359;1281;22507;-68
2023/05/03 03:22:10;;;;;;;;;;;;;;;14.14;96.42;99569.02;135340;1281;22533;-67
2023/05/03 03:25:13;;;;;;;;;;;;;;;14.18;95.87;99570.39;135379;1281;22633;-70
2023/05/03 03:28:15;;;;;;;;;;;;;;;14.19;96.21;99570.47;135386;1262;22514;-68
2023/05/03 03:31:21;;;;;;;;;;;;;;;14.34;95.68;99571.44;135371;1281;22500;-69
2023/05/03 03:34:24;;;;;;;;;;;;;;;14.41;95.29;99574.67;135391;1281;22613;-68
2023/05/03 03:37:27;;;;;;;;;;;;;;;14.46;95.13;99574.58;135360;1281;22512;-69
2023/05/03 03:40:30;;;;;;;;;;;;;;;14.54;94.40;99578.95;135377;1281;22612;-68
2023/05/03 03:43:33;;;;;;;;;;;;;;;14.54;94.42;99586.15;135397;1281;25220;-68
2023/05/03 03:46:36;;;;;;;;;;;;;;;14.61;94.35;99587.68;135370;1281;22520;-71
2023/05/03 03:49:39;;;;;;;;;;;;;;;14.67;94.45;99589.41;135363;1281;23888;-69
2023/05/03 03:52:50;;;;;;;;;;;;;;;14.88;93.21;99585.60;135372;1281;22658;-68
2023/05/03 03:55:54;;;;;;;;;;;;;;;14.86;92.94;99588.70;135410;1281;22514;-67
2023/05/03 03:58:56;;;;;;;;;;;;;;;14.75;93.10;99592.74;135380;1281;22511;-70
2023/05/03 04:02:00;;;;;;;;;;;;;;;14.71;93.48;99602.89;135344;1264;24209;-67
2023/05/03 04:05:03;;;;;;;;;;;;;;;14.75;93.17;99598.02;135365;1281;22525;-68
2023/05/03 04:08:06;;;;;;;;;;;;;;;14.74;93.02;99595.46;135352;1281;22550;-69
2023/05/03 04:11:09;;;;;;;;;;;;;;;14.80;92.48;99597.89;135357;1263;22511;-69
2023/05/03 04:14:12;;;;;;;;;;;;;;;14.76;93.10;99601.30;135377;1281;22525;-67
2023/05/03 04:17:15;;;;;;;;;;;;;;;14.85;92.53;99600.92;135383;1281;22491;-71
2023/05/03 04:20:18;;;;;;;;;;;;;;;14.94;91.77;99605.09;135378;1263;22497;-69
2023/05/03 04:23:21;;;;;;;;;;;;;;;15.05;91.21;99608.92;135355;1281;22503;-70
2023/05/03 04:26:24;;;;;;;;;;;;;;;14.97;92.03;99620.71;135341;1281;22516;-68
2023/05/03 04:29:27;;;;;;;;;;;;;;;14.74;94.64;99625.39;135291;1262;22504;-69
2023/05/03 04:32:35;;;;;;;;;;;;;;;14.59;98.14;99632.70;135313;1262;22501;-69
2023/05/03 04:35:39;;;;;;;;;;;;;;;14.50;100.00;99633.09;135314;1281;22511;-69
2023/05/03 04:38:42;;;;;;;;;;;;;;;14.34;100.00;99642.72;135344;1281;22500;-68
2023/05/03 04:41:45;;;;;;;;;;;;;;;14.43;100.00;99647.40;135373;1281;22504;-69
2023/05/03 04:44:48;;;;;;;;;;;;;;;14.40;100.00;99653.41;135355;1281;22506;-69
2023/05/03 04:47:52;;;;;;;;;;;;;;;14.47;100.00;99653.82;135380;1278;22525;-67
2023/05/03 04:50:55;;;;;;;;;;;;;;;14.47;100.00;99654.56;135366;1281;22510;-68
2023/05/03 04:53:58;;;;;;;;;;;;;;;14.54;100.00;99653.73;135357;1281;22518;-69
2023/05/03 04:57:01;;;;;;;;;;;;;;;14.64;100.00;99653.14;135375;1281;22615;-68
2023/05/03 05:00:09;;;;;;;;;;;;;;;14.74;99.99;99656.91;135368;1281;26429;-68
2023/05/03 05:03:12;;;;;;;;;;;;;;;14.80;99.35;99654.20;135385;1281;22502;-68
2023/05/03 05:06:15;;;;;;;;;;;;;;;14.89;98.50;99653.80;135335;1281;24392;-68
2023/05/03 05:09:18;;;;;;;;;;;;;;;14.95;98.12;99646.04;135786;1262;22571;-68
2023/05/03 05:12:21;;;;;;;;;;;;;;;15.03;97.45;99644.45;136452;1281;22485;-68
2023/05/03 05:15:24;;;;;;;;;;;;;;;15.16;96.17;99649.03;136350;1281;23259;-68
2023/05/03 05:18:27;;;;;;;;;;;;;;;15.27;95.03;99652.54;136621;1281;23371;-68
2023/05/03 05:21:31;;;;;;;;;;;;;;;15.34;93.89;99655.45;136623;1281;22397;-68
2023/05/03 05:24:34;;;;;;;;;;;;;;;15.32;94.10;99655.70;135383;1281;23611;-68
2023/05/03 05:27:37;;;;;;;;;;;;;;;15.36;93.94;99653.71;135399;1281;22518;-70
2023/05/03 05:30:41;;;;;;;;;;;;;;;15.46;94.12;99654.81;135379;1281;22509;-68
2023/05/03 05:33:45;;;;;;;;;;;;;;;15.53;93.97;99655.91;135371;1281;22558;-69
2023/05/03 05:36:51;;;;;;;;;;;;;;;15.68;94.72;99660.67;135348;1281;22497;-69
2023/05/03 05:39:54;;;;;;;;;;;;;;;16.08;93.41;99664.30;135356;1281;22521;-68
2023/05/03 05:42:57;;;;;;;;;;;;;;;16.25;91.43;99670.16;135318;1281;22500;-68
2023/05/03 05:46:00;;;;;;;;;;;;;;;16.35;90.05;99672.61;135293;1281;22526;-68
2023/05/03 05:49:04;;;;;;;;;;;;;;;16.46;88.75;99673.94;135373;1281;22516;-67
2023/05/03 05:52:07;;;;;;;;;;;;;;;16.68;88.77;99670.41;135331;1281;22511;-69
2023/05/03 05:55:14;;;;;;;;;;;;;;;16.68;87.83;99676.42;135365;1281;24196;-68
2023/05/03 05:58:17;;;;;;;;;;;;;;;16.84;86.66;99676.31;135334;1271;22513;-69
2023/05/03 06:01:20;;;;;;;;;;;;;;;16.76;85.87;99687.38;135384;1281;22579;-68
2023/05/03 06:04:23;;;;;;;;;;;;;;;16.72;84.76;99691.73;135402;1281;22510;-69
2023/05/03 06:07:25;;;;;;;;;;;;;;;16.66;84.58;99697.76;135343;1264;22552;-69
2023/05/03 06:10:32;;;;;;;;;;;;;;;16.80;84.67;99706.45;135361;1281;22518;-69
2023/05/03 06:13:37;;;;;;;;;;;;;;;16.91;83.89;99702.89;135316;1281;22577;-71
2023/05/03 06:16:40;;;;;;;;;;;;;;;17.10;82.65;99702.20;135346;1281;22519;-69
2023/05/03 06:19:43;;;;;;;;;;;;;;;17.33;81.83;99703.33;135339;1281;22504;-69
2023/05/03 06:22:47;;;;;;;;;;;;;;;17.40;80.12;99704.56;135386;1281;22649;-70
2023/05/03 06:25:51;;;;;;;;;;;;;;;17.44;78.90;99704.92;135334;1281;22507;-70
2023/05/03 06:28:54;;;;;;;;;;;;;;;17.52;78.93;99705.40;135366;1281;25387;-71
2023/05/03 06:31:57;;;;;;;;;;;;;;;17.61;78.28;99705.45;135325;1281;23860;-70
2023/05/03 06:35:02;;;;;;;;;;;;;;;17.65;78.31;99704.99;135370;1281;22480;-69
2023/05/03 06:38:07;;;;;;;;;;;;;;;17.68;76.67;99702.77;135331;1281;22512;-68
2023/05/03 06:41:11;;;;;;;;;;;;;;;17.84;77.47;99704.23;135321;1281;22503;-69
2023/05/03 06:44:14;;;;;;;;;;;;;;;18.01;77.02;99705.77;135309;1281;22503;-69
2023/05/03 06:47:19;;;;;;;;;;;;;;;18.17;76.00;99708.47;135290;1281;22512;-70
2023/05/03 06:50:23;;;;;;;;;;;;;;;18.23;73.89;99716.98;135357;1281;22473;-69
2023/05/03 06:53:25;;;;;;;;;;;;;;;18.14;72.45;99721.79;135333;1281;22515;-69
2023/05/03 06:56:29;;;;;;;;;;;;;;;17.90;73.77;99720.35;135342;1281;22500;-69
2023/05/03 06:59:31;;;;;;;;;;;;;;;17.48;73.41;99724.13;135297;1281;22529;-69
2023/05/03 07:02:34;;;;;;;;;;;;;;;17.06;72.88;99731.64;135331;1281;25480;-71
2023/05/03 07:05:36;;;;;;;;;;;;;;;16.70;75.61;99732.98;135373;1281;22643;-69
2023/05/03 07:08:39;;;;;;;;;;;;;;;16.62;77.53;99736.01;135342;1281;22510;-69
2023/05/03 07:11:48;;;;;;;;;;;;;;;16.64;77.95;99737.30;135289;1281;22500;-68
2023/05/03 07:14:54;;;;;;;;;;;;;;;16.63;77.14;99738.94;135306;1265;22622;-66
2023/05/03 07:17:56;;;;;;;;;;;;;;;16.71;76.85;99739.25;135331;1281;22516;-71
2023/05/03 07:21:00;;;;;;;;;;;;;;;16.73;77.82;99742.11;135306;1262;22519;-69
2023/05/03 07:24:03;;;;;;;;;;;;;;;16.92;76.84;99742.02;135305;1281;24689;-69
2023/05/03 07:27:07;;;;;;;;;;;;;;;16.92;77.95;99735.30;135354;1262;22527;-69
2023/05/03 07:30:10;;;;;;;;;;;;;;;17.10;75.24;99738.92;135370;1281;22519;-67
2023/05/03 07:33:13;;;;;;;;;;;;;;;17.09;73.15;99749.30;135329;1281;22501;-67
2023/05/03 07:36:31;;;;;;;;;;;;;;;16.94;71.75;99752.28;135317;1281;22516;-67
2023/05/03 07:39:35;;;;;;;;;;;;;;;17.00;72.80;99755.20;135339;1281;22506;-68
2023/05/03 07:42:37;;;;;;;;;;;;;;;16.86;72.50;99756.91;135322;1281;22491;-69
2023/05/03 07:45:41;;;;;;;;;;;;;;;16.91;72.83;99753.56;135300;1281;22518;-67
2023/05/03 07:48:44;;;;;;;;;;;;;;;17.03;71.54;99754.47;135347;1281;26590;-67
2023/05/03 07:51:48;;;;;;;;;;;;;;;17.22;72.02;99754.87;135315;1281;22627;-68
2023/05/03 07:54:51;;;;;;;;;;;;;;;17.29;70.57;99756.62;135331;1281;22538;-68
2023/05/03 07:57:58;;;;;;;;;;;;;;;17.30;69.91;99760.77;135297;1281;22500;-68
2023/05/03 08:01:02;;;;;;;;;;;;;;;17.26;70.35;99763.05;135306;1281;23848;-68
2023/05/03 08:04:06;;;;;;;;;;;;;;;17.08;69.98;99762.29;135293;1281;22595;-67
2023/05/03 08:07:11;;;;;;;;;;;;;;;17.02;67.31;99764.10;135330;1281;22512;-67
2023/05/03 08:10:14;;;;;;;;;;;;;;;16.70;66.27;99769.03;135348;1281;22515;-69
2023/05/03 08:13:17;;;;;;;;;;;;;;;16.38;67.39;99764.02;135349;1262;23142;-67
2023/05/03 08:16:23;;;;;;;;;;;;;;;16.25;68.32;99763.15;135336;1281;22500;-68
2023/05/03 08:19:27;;;;;;;;;;;;;;;16.08;69.78;99764.34;135299;1281;22616;-68
2023/05/03 08:22:31;;;;;;;;;;;;;;;16.12;68.56;99764.73;135305;1281;22616;-70
2023/05/03 08:25:36;;;;;;;;;;;;;;;16.46;67.80;99763.60;135345;1281;22500;-68
2023/05/03 08:28:39;;;;;;;;;;;;;;;16.68;67.18;99766.53;135364;1281;22500;-70
2023/05/03 08:31:46;;;;;;;;;;;;;;;16.88;65.80;99766.84;135330;1281;22507;-68
2023/05/03 08:34:49;;;;;;;;;;;;;;;16.97;65.84;99771.38;135322;1281;24476;-69
2023/05/03 08:37:53;;;;;;;;;;;;;;;17.06;66.94;99769.98;135272;1281;27052;-69
2023/05/03 08:40:57;;;;;;;;;;;;;;;17.24;65.90;99769.73;135317;1265;24353;-70
2023/05/03 08:44:00;;;;;;;;;;;;;;;17.10;65.46;99771.83;135336;1281;22497;-69
2023/05/03 08:47:05;;;;;;;;;;;;;;;17.36;65.48;99775.05;135311;1281;25356;-68
2023/05/03 08:50:09;;;;;;;;;;;;;;;17.60;64.35;99770.23;135313;1281;22493;-66
2023/05/03 08:53:11;;;;;;;;;;;;;;;17.82;63.93;99766.52;135304;1281;22514;-68
2023/05/03 08:56:15;;;;;;;;;;;;;;;17.66;63.05;99769.42;135248;1271;22528;-69
2023/05/03 08:59:28;;;;;;;;;;;;;;;;;;;;;
2023/05/03 09:02:33;;;;;;;;;;;;;;;17.21;63.73;99785.70;135308;1281;22497;-69
2023/05/03 09:05:40;;;;;;;;;;;;;;;17.15;62.81;99794.94;135329;1281;22559;-72
2023/05/03 09:08:42;;;;;;;;;;;;;;;16.98;62.55;99801.33;135322;1281;22502;-71
2023/05/03 09:11:54;;;;;;;;;;;;;;;16.82;62.15;99797.63;135362;1276;22612;-69
2023/05/03 09:14:57;;;;;;;;;;;;;;;16.89;62.76;99801.56;135377;1262;22497;-71
2023/05/03 09:18:00;;;;;;;;;;;;;;;16.97;62.24;99798.39;135313;1281;22545;-70
2023/05/03 09:21:03;;;;;;;;;;;;;;;16.93;62.14;99801.67;135313;1281;22527;-69
2023/05/03 09:24:06;;;;;;;;;;;;;;;16.80;62.91;99805.05;135315;1281;22548;-68
2023/05/03 09:27:09;;;;;;;;;;;;;;;16.83;61.28;99807.09;135272;1281;22526;-68
2023/05/03 09:30:12;;;;;;;;;;;;;;;16.65;61.44;99803.30;135346;1281;22647;-68
2023/05/03 09:33:20;;;;;;;;;;;;;;;16.69;61.91;99808.44;135301;1281;22649;-68
2023/05/03 09:36:23;;;;;;;;;;;;;;;16.53;62.25;99809.72;135292;1268;22518;-69
2023/05/03 09:39:26;;;;;;;;;;;;;;;16.64;63.29;99812.35;135301;1265;22523;-69
2023/05/03 09:42:30;;;;;;;;;;;;;;;16.65;63.59;99808.90;135299;1281;22529;-68
2023/05/03 09:45:33;;;;;;;;;;;;;;;16.75;63.95;99812.62;135272;1281;25399;-68
2023/05/03 09:48:36;;;;;;;;;;;;;;;16.82;62.29;99811.09;135314;1265;22511;-71
2023/05/03 09:51:40;;;;;;;;;;;;;;;16.79;62.34;99813.23;135273;1281;22552;-71
2023/05/03 09:54:43;;;;;;;;;;;;;;;16.74;62.60;99813.54;135320;1281;22512;-68
2023/05/03 09:57:46;;;;;;;;;;;;;;;16.59;61.33;99814.48;135300;1281;25317;-69
2023/05/03 10:00:50;;;;;;;;;;;;;;;16.34;62.05;99816.67;135269;1281;22513;-69
2023/05/03 10:03:53;;;;;;;;;;;;;;;16.26;60.95;99820.95;135268;1281;22494;-68
2023/05/03 10:06:57;;;;;;;;;;;;;;;16.41;60.50;99820.84;135271;1265;22507;-69
2023/05/03 10:10:00;;;;;;;;;;;;;;;16.43;60.92;99819.60;135282;1281;25230;-68
2023/05/03 10:13:03;;;;;;;;;;;;;;;16.60;60.00;99821.06;135253;1281;25293;-68
2023/05/03 10:16:08;;;;;;;;;;;;;;;16.57;58.33;99826.58;135264;1281;22504;-68
2023/05/03 10:19:11;;;;;;;;;;;;;;;16.57;59.25;99827.99;135298;1281;24391;-70
2023/05/03 10:22:14;;;;;;;;;;;;;;;16.81;57.81;99827.17;135296;1281;22757;-68
2023/05/03 10:25:17;;;;;;;;;;;;;;;16.81;56.46;99824.39;135337;1281;22511;-67
2023/05/03 10:28:20;;;;;;;;;;;;;;;16.78;57.67;99825.64;135271;1281;22526;-68
2023/05/03 10:31:23;;;;;;;;;;;;;;;16.89;55.85;99831.06;135302;1281;22538;-67
2023/05/03 10:34:26;;;;;;;;;;;;;;;17.04;55.52;99832.48;135293;1281;22503;-69
2023/05/03 10:37:35;;;;;;;;;;;;;;;16.97;55.90;99836.19;135289;1281;24398;-69
2023/05/03 10:40:38;;;;;;;;;;;;;;;17.18;56.32;99830.48;135293;1281;22524;-71
2023/05/03 10:43:41;;;;;;;;;;;;;;;17.47;54.33;99828.33;135316;1281;22512;-68
2023/05/03 10:46:46;;;;;;;;;;;;;;;17.73;53.83;99824.98;135320;1264;22504;-68
2023/05/03 10:49:49;;;;;;;;;;;;;;;17.68;53.13;99822.75;135307;1281;22558;-67
2023/05/03 10:52:52;;;;;;;;;;;;;;;17.58;52.72;99823.98;135318;1281;22540;-67
2023/05/03 10:55:56;;;;;;;;;;;;;;;17.75;54.19;99822.58;135284;1281;22503;-68
2023/05/03 10:58:58;;;;;;;;;;;;;;;18.01;53.93;99824.69;135269;1281;22507;-68
2023/05/03 11:02:02;;;;;;;;;;;;;;;17.92;53.41;99827.14;135289;1281;25483;-67
2023/05/03 11:05:07;;;;;;;;;;;;;;;17.79;53.30;99827.92;135276;1281;22505;-67
2023/05/03 11:08:11;;;;;;;;;;;;;;;17.83;52.42;99834.11;135307;1281;22509;-67
2023/05/03 11:11:14;;;;;;;;;;;;;;;17.84;52.89;99830.73;135311;1281;22511;-67
2023/05/03 11:14:17;;;;;;;;;;;;;;;17.75;52.51;99839.34;135305;1265;24206;-68
2023/05/03 11:17:20;;;;;;;;;;;;;;;17.60;52.28;99835.30;135372;1281;22488;-68
2023/05/03 11:20:23;;;;;;;;;;;;;;;17.86;53.47;99831.77;135306;1281;22519;-68
2023/05/03 11:23:27;;;;;;;;;;;;;;;17.91;52.32;99833.07;135260;1265;23671;-68
2023/05/03 11:26:30;;;;;;;;;;;;;;;17.81;51.77;99832.90;135276;1276;22617;-67
2023/05/03 11:29:32;;;;;;;;;;;;;;;17.66;52.27;99839.82;135283;1281;22648;-69
2023/05/03 11:32:35;;;;;;;;;;;;;;;17.53;52.24;99841.32;135305;1281;22499;-69
2023/05/03 11:35:39;;;;;;;;;;;;;;;17.39;53.10;99838.63;135303;1281;22500;-69
2023/05/03 11:38:42;;;;;;;;;;;;;;;17.42;52.17;99845.66;135290;1265;22514;-67
2023/05/03 11:41:45;;;;;;;;;;;;;;;17.46;51.94;99849.30;135268;1281;22494;-68
2023/05/03 11:44:48;;;;;;;;;;;;;;;17.51;52.04;99845.54;135294;1281;22569;-68
2023/05/03 11:47:51;;;;;;;;;;;;;;;17.79;50.97;99843.85;135296;1281;22515;-68
2023/05/03 11:50:54;;;;;;;;;;;;;;;17.74;50.92;99842.96;135295;1281;22519;-68
2023/05/03 11:53:58;;;;;;;;;;;;;;;17.75;50.98;99843.93;135296;1281;22515;-69
2023/05/03 11:57:02;;;;;;;;;;;;;;;17.78;50.77;99841.91;135322;1281;22511;-69
2023/05/03 12:00:07;;;;;;;;;;;;;;;17.73;50.20;99837.02;135298;1262;22619;-68
2023/05/03 12:03:11;;;;;;;;;;;;;;;17.99;50.12;99834.21;131215;1281;5387444;-68
2023/05/03 12:06:13;;;;;;;;;;;;;;;18.10;49.46;99829.50;135290;1281;22511;-67
2023/05/03 12:09:16;;;;;;;;;;;;;;;18.03;49.50;99836.60;135343;1281;25462;-68
2023/05/03 12:12:18;;;;;;;;;;;;;;;18.01;49.57;99834.61;135327;1281;22524;-69
2023/05/03 12:15:21;;;;;;;;;;;;;;;18.13;48.49;99829.45;135318;1274;22510;-69
2023/05/03 12:18:23;;;;;;;;;;;;;;;17.98;48.27;99831.31;135264;1281;22518;-68
2023/05/03 12:21:26;;;;;;;;;;;;;;;18.15;49.75;99826.13;135328;1281;23868;-66
2023/05/03 12:24:29;;;;;;;;;;;;;;;18.50;48.22;99827.48;135317;1281;22503;-67
2023/05/03 12:27:33;;;;;;;;;;;;;;;18.75;47.22;99821.95;135337;1281;22515;-67
2023/05/03 12:30:37;;;;;;;;;;;;;;;18.91;46.16;99820.60;135289;1281;22502;-69
2023/05/03 12:33:40;;;;;;;;;;;;;;;19.16;47.14;99814.33;135307;1281;22531;-69
2023/05/03 12:36:43;;;;;;;;;;;;;;;19.44;45.95;99809.17;135302;1281;22527;-68
2023/05/03 12:39:46;;;;;;;;;;;;;;;19.53;45.26;99809.73;135300;1281;22514;-68
2023/05/03 12:42:49;;;;;;;;;;;;;;;19.53;45.02;99799.22;135307;1281;22507;-68
2023/05/03 12:45:51;;;;;;;;;;;;;;;19.58;44.89;99795.65;135246;1276;22631;-68
2023/05/03 12:48:55;;;;;;;;;;;;;;;19.82;44.44;99793.82;135325;1281;22508;-68
2023/05/03 12:51:59;;;;;;;;;;;;;;;20.01;43.61;99788.02;135270;1281;22512;-67
2023/05/03 12:55:03;;;;;;;;;;;;;;;19.99;42.92;99783.58;135263;1276;22519;-69
2023/05/03 12:58:07;;;;;;;;;;;;;;;19.91;42.63;99779.42;135270;1281;22540;-67
2023/05/03 13:01:12;;;;;;;;;;;;;;;20.00;42.75;99778.66;135270;1281;22518;-68
2023/05/03 13:04:16;;;;;;;;;;;;;;;19.94;42.25;99777.95;135265;1281;25188;-69
2023/05/03 13:07:20;;;;;;;;;;;;;;;19.88;42.40;99775.94;135211;1281;25366;-68
2023/05/03 13:10:25;;;;;;;;;;;;;;;19.87;42.05;99772.89;135310;1281;24363;-68
2023/05/03 13:13:30;;;;;;;;;;;;;;;19.75;42.36;99772.77;135332;1281;22534;-69
2023/05/03 13:16:33;;;;;;;;;;;;;;;19.58;40.69;99773.08;135340;1281;22512;-67
2023/05/03 13:19:36;;;;;;;;;;;;;;;19.34;40.77;99771.35;135322;1281;22524;-69
2023/05/03 13:22:39;;;;;;;;;;;;;;;19.42;41.87;99772.13;135308;1268;25492;-67
2023/05/03 13:25:41;;;;;;;;;;;;;;;19.77;41.24;99774.23;135269;1281;22498;-68
2023/05/03 13:28:45;;;;;;;;;;;;;;;20.27;41.31;99768.58;135270;1281;26612;-68
2023/05/03 13:31:47;;;;;;;;;;;;;;;20.30;39.83;99764.39;135288;1263;22639;-68
2023/05/03 13:34:51;;;;;;;;;;;;;;;20.09;39.82;99760.55;135344;1281;22517;-68
2023/05/03 13:37:55;;;;;;;;;;;;;;;19.83;39.36;99756.67;135273;1281;22495;-68
2023/05/03 13:40:59;;;;;;;;;;;;;;;19.67;40.19;99760.95;135318;1281;22523;-69
2023/05/03 13:44:03;;;;;;;;;;;;;;;19.52;39.53;99758.52;135303;1281;22533;-68
2023/05/03 13:47:08;;;;;;;;;;;;;;;19.73;40.57;99758.79;135273;1281;22529;-67
2023/05/03 13:50:12;;;;;;;;;;;;;;;19.93;39.00;99755.81;135320;1281;22516;-71
2023/05/03 13:53:16;;;;;;;;;;;;;;;19.85;37.54;99759.90;135314;1281;22558;-69
2023/05/03 13:56:20;;;;;;;;;;;;;;;19.67;38.94;99753.23;135312;1281;22515;-69
2023/05/03 13:59:24;;;;;;;;;;;;;;;19.65;39.14;99750.21;135305;1281;22529;-67
2023/05/03 14:02:28;;;;;;;;;;;;;;;19.57;38.92;99748.39;135292;1281;22517;-69
2023/05/03 14:05:31;;;;;;;;;;;;;;;19.71;38.98;99753.57;135306;1281;22534;-68
2023/05/03 14:08:35;;;;;;;;;;;;;;;19.55;39.48;99750.11;135285;1281;22515;-68
2023/05/03 14:11:39;;;;;;;;;;;;;;;19.62;39.27;99750.25;135306;1281;22516;-70
2023/05/03 14:14:43;;;;;;;;;;;;;;;19.80;38.71;99749.10;135323;1281;22558;-70
2023/05/03 14:17:46;;;;;;;;;;;;;;;19.88;39.10;99742.11;135319;1281;22535;-68
2023/05/03 14:20:51;;;;;;;;;;;;;;;20.14;39.09;99743.69;135312;1281;22504;-72
2023/05/03 14:23:57;;;;;;;;;;;;;;;21.09;38.06;99737.18;135296;1281;25308;-69
2023/05/03 14:27:00;;;;;;;;;;;;;;;21.83;36.33;99733.99;135325;1281;22504;-70
2023/05/03 14:30:03;;;;;;;;;;;;;;;21.26;35.52;99744.91;135319;1265;22523;-69
2023/05/03 14:33:06;;;;;;;;;;;;;;;20.87;36.12;99750.54;135329;1281;22526;-70
2023/05/03 14:36:09;;;;;;;;;;;;;;;20.44;35.46;99751.84;135312;1281;22511;-70
2023/05/03 14:39:16;;;;;;;;;;;;;;;20.32;36.83;99750.20;135302;1281;22497;-70
2023/05/03 14:42:20;;;;;;;;;;;;;;;20.67;36.56;99753.02;135275;1281;22513;-69
2023/05/03 14:45:23;;;;;;;;;;;;;;;21.23;35.80;99752.30;135314;1281;22512;-68
2023/05/03 14:48:25;;;;;;;;;;;;;;;21.62;33.85;99751.05;135305;1273;25492;-69
2023/05/03 14:51:28;;;;;;;;;;;;;;;21.53;34.61;99750.13;135297;1281;22505;-69
2023/05/03 14:54:31;;;;;;;;;;;;;;;21.55;33.76;99753.02;135313;1273;22518;-71
2023/05/03 14:57:38;;;;;;;;;;;;;;;21.86;34.39;99749.75;135322;1281;22514;-69
2023/05/03 15:00:41;;;;;;;;;;;;;;;21.50;34.46;99759.38;135321;1281;22514;-71
2023/05/03 15:03:45;;;;;;;;;;;;;;;21.06;34.53;99757.90;135331;1281;26525;-70
2023/05/03 15:06:48;;;;;;;;;;;;;;;20.76;35.41;99755.39;135309;1281;22519;-70
2023/05/03 15:09:51;;;;;;;;;;;;;;;20.47;35.50;99756.17;135319;1281;22514;-71
2023/05/03 15:12:54;;;;;;;;;;;;;;;21.06;34.49;99762.47;135320;1281;22505;-70
2023/05/03 15:15:57;;;;;;;;;;;;;;;22.03;32.93;99753.61;135375;1281;22513;-69
2023/05/03 15:19:00;;;;;;;;;;;;;;;21.78;34.42;99752.27;135332;1281;22524;-71
2023/05/03 15:22:04;;;;;;;;;;;;;;;21.55;34.13;99758.46;135322;1281;22533;-71
2023/05/03 15:25:06;;;;;;;;;;;;;;;21.69;33.55;99757.16;135311;1263;22538;-69
2023/05/03 15:28:10;;;;;;;;;;;;;;;21.98;33.15;99757.70;135312;1281;22527;-71
2023/05/03 15:31:13;;;;;;;;;;;;;;;21.50;32.96;99755.67;135354;1281;22511;-70
2023/05/03 15:34:17;;;;;;;;;;;;;;;22.47;32.85;99755.20;135325;1281;25393;-69
2023/05/03 15:37:20;;;;;;;;;;;;;;;23.57;30.84;99749.80;135294;1281;22509;-69
2023/05/03 15:40:23;;;;;;;;;;;;;;;24.82;29.42;99754.48;135333;1281;22502;-70
2023/05/03 15:43:33;;;;;;;;;;;;;;;26.08;29.07;99747.66;135326;1281;22533;-69
2023/05/03 15:46:37;;;;;;;;;;;;;;;27.78;27.88;99740.25;135310;1281;22514;-67